Time;durP1;ratioP1;P1;durP2;ratioP2;P2;SDS_P1;SDS_P2;PMS_P1;PMS_P2;Temp;Humidity;BMP_temperature;BMP_pressure;BME280_temperature;BME280_humidity;BME280_pressure;Samples;Min_cycle;Max_cycle;Signal;HPM_P1;HPM_P2
2021/01/28 00:00:47;;;;;;;131.55;55.88;;;;;;;-1.29;70.33;99820.25;2137255;83;27646;-71
2021/01/28 00:03:50;;;;;;;138.28;64.25;;;;;;;-1.30;70.26;99815.45;2101450;83;27767;-70
2021/01/28 00:06:52;;;;;;;118.22;56.35;;;;;;;-1.31;70.44;99808.45;2110425;82;31210;-73
2021/01/28 00:09:55;;;;;;;113.40;55.25;;;;;;;-1.31;70.31;99815.44;2121809;83;33139;-69
2021/01/28 00:12:58;;;;;;;133.67;64.47;;;;;;;-1.34;70.44;99822.06;2099099;83;28334;-69
2021/01/28 00:16:01;;;;;;;127.32;57.40;;;;;;;-1.32;70.62;99832.98;2101600;83;27685;-72
2021/01/28 00:19:03;;;;;;;115.45;52.45;;;;;;;-1.32;70.62;99823.78;2100796;84;29772;-71
2021/01/28 00:22:06;;;;;;;125.97;59.70;;;;;;;-1.32;70.57;99828.19;2101846;83;31204;-66
2021/01/28 00:25:12;;;;;;;124.38;58.87;;;;;;;-1.32;70.55;99830.81;2100952;84;34397;-67
2021/01/28 00:28:18;;;;;;;154.75;76.55;;;;;;;-1.34;70.55;99832.58;2134224;83;30070;-68
2021/01/28 00:31:19;;;;;;;118.22;53.33;;;;;;;-1.36;70.68;99826.00;2131227;83;27733;-68
2021/01/28 00:34:21;;;;;;;148.07;65.45;;;;;;;-1.36;70.70;99814.63;2101222;84;28827;-68
2021/01/28 00:37:24;;;;;;;133.37;59.67;;;;;;;-1.39;70.62;99813.77;2100049;83;30511;-69
2021/01/28 00:40:29;;;;;;;117.00;56.58;;;;;;;-1.39;70.64;99810.25;2117402;83;33129;-70
2021/01/28 00:43:31;;;;;;;118.50;52.50;;;;;;;-1.40;70.46;99815.08;2097371;83;29167;-69
2021/01/28 00:46:33;;;;;;;108.67;50.00;;;;;;;-1.41;70.46;99814.22;2114864;83;27575;-72
2021/01/28 00:49:35;;;;;;;108.45;49.42;;;;;;;-1.43;70.45;99815.98;2137921;82;29056;-73
2021/01/28 00:52:40;;;;;;;110.72;51.45;;;;;;;-1.45;70.57;99806.39;2117483;83;31072;-70
2021/01/28 00:55:42;;;;;;;95.67;43.80;;;;;;;-1.45;70.60;99807.24;2101828;83;33098;-70
2021/01/28 00:58:44;;;;;;;108.25;52.00;;;;;;;-1.47;70.50;99810.33;2100780;84;29239;-69
2021/01/28 01:01:46;;;;;;;101.20;49.70;;;;;;;-1.48;70.46;99808.58;2098031;84;27924;-70
2021/01/28 01:04:48;;;;;;;103.85;47.58;;;;;;;-1.51;70.38;99799.86;2114527;83;28966;-70
2021/01/28 01:07:51;;;;;;;100.75;45.38;;;;;;;-1.54;70.48;99787.17;2137782;83;30641;-71
2021/01/28 01:10:58;;;;;;;106.30;49.67;;;;;;;-1.55;70.63;99780.18;2137018;83;33890;-69
2021/01/28 01:14:00;;;;;;;97.35;46.13;;;;;;;-1.56;70.53;99773.18;2114027;83;29170;-69
2021/01/28 01:17:02;;;;;;;90.57;43.83;;;;;;;-1.56;70.46;99765.76;2137872;83;27750;-67
2021/01/28 01:20:05;;;;;;;99.03;42.83;;;;;;;-1.59;70.58;99760.10;2138244;83;28813;-69
2021/01/28 01:23:08;;;;;;;84.17;42.38;;;;;;;-1.61;70.87;99746.53;2113940;83;32120;-67
2021/01/28 01:26:10;;;;;;;94.35;42.25;;;;;;;-1.62;71.11;99741.73;2138066;82;33186;-68
2021/01/28 01:29:12;;;;;;;95.87;43.40;;;;;;;-1.59;71.27;99748.28;2115612;83;30032;-68
2021/01/28 01:32:14;;;;;;;89.32;41.53;;;;;;;-1.58;71.31;99743.89;2101962;84;27695;-67
2021/01/28 01:35:18;;;;;;;91.95;41.95;;;;;;;-1.56;71.05;99739.49;2101772;84;28807;-69
2021/01/28 01:38:21;;;;;;;90.67;41.57;;;;;;;-1.56;70.95;99739.03;2102134;84;31144;-67
2021/01/28 01:41:30;;;;;;;86.35;40.50;;;;;;;-1.56;70.94;99733.78;2101756;84;33974;-68
2021/01/28 01:44:32;;;;;;;96.70;42.58;;;;;;;-1.57;70.94;99724.16;2096936;82;29226;-68
2021/01/28 01:47:45;;;;;;;87.10;41.58;;;;;;;-1.56;70.89;99723.73;2071172;84;27575;-68
2021/01/28 01:51:00;;;;;;;94.07;43.05;;;;;;;-1.57;70.90;99721.53;2103424;83;28855;-68
2021/01/28 01:54:05;;;;;;;;;;;;;;;-1.56;71.00;99710.14;2079557;85;31207;-66
2021/01/28 01:57:21;;;;;;;79.67;40.08;;;;;;;-1.56;70.91;99715.39;2081069;84;33165;-66
2021/01/28 02:00:25;;;;;;;80.15;37.53;;;;;;;-1.55;71.09;99712.34;2087198;82;29175;-66
2021/01/28 02:03:29;;;;;;;87.80;41.50;;;;;;;-1.54;71.12;99704.44;2117283;82;27737;-66
2021/01/28 02:06:45;;;;;;;73.90;36.45;;;;;;;-1.54;71.10;99693.93;2094040;82;28965;-66
2021/01/28 02:09:47;;;;;;;70.75;36.77;;;;;;;-1.53;71.10;99683.85;2121715;82;31160;-65
2021/01/28 02:12:54;;;;;;;78.95;38.55;;;;;;;-1.51;71.18;99681.66;2123262;82;33173;-67
2021/01/28 02:15:56;;;;;;;71.90;35.15;;;;;;;-1.56;71.23;99673.37;2121775;82;29177;-65
2021/01/28 02:19:00;;;;;;;77.65;36.42;;;;;;;-1.56;71.38;99664.18;2148496;82;27828;-64
2021/01/28 02:22:03;;;;;;;70.17;35.15;;;;;;;-1.58;71.55;99660.73;2133674;82;28836;-65
2021/01/28 02:25:32;;;;;;;72.92;33.50;;;;;;;-1.58;71.71;99661.16;2090730;82;31603;-65
2021/01/28 02:28:35;;;;;;;70.65;33.92;;;;;;;-1.57;71.79;99655.88;2117003;82;33108;-65
2021/01/28 02:31:38;;;;;;;63.15;33.40;;;;;;;-1.56;71.88;99657.61;2137445;82;29154;-65
2021/01/28 02:34:44;;;;;;;64.12;31.25;;;;;;;-1.53;71.95;99661.53;2112137;84;27732;-66
2021/01/28 02:37:48;;;;;;;45.73;23.77;;;;;;;-1.52;72.11;99651.91;2079608;84;28811;-66
2021/01/28 02:40:50;;;;;;;55.17;26.60;;;;;;;-1.51;72.15;99642.25;2101386;84;31232;-66
2021/01/28 02:43:53;;;;;;;68.35;33.67;;;;;;;-1.51;72.18;99636.58;2111162;84;34486;-66
2021/01/28 02:46:56;;;;;;;62.03;30.30;;;;;;;-1.50;72.20;99635.69;2109439;84;29244;-66
2021/01/28 02:49:58;;;;;;;62.85;31.33;;;;;;;-1.46;72.17;99634.74;2141813;82;27677;-66
2021/01/28 02:53:05;;;;;;;58.98;29.30;;;;;;;-1.40;72.10;99629.86;2134434;79;28785;-63
2021/01/28 02:56:07;;;;;;;63.52;32.08;;;;;;;-1.38;72.02;99630.72;2188442;81;32136;-63
2021/01/28 02:59:10;;;;;;;66.53;31.60;;;;;;;-1.34;71.90;99636.37;2183457;79;33115;-64
2021/01/28 03:02:16;;;;;;;59.88;31.55;;;;;;;-1.33;71.84;99629.38;2150715;81;29175;-66
2021/01/28 03:05:19;;;;;;;56.83;30.30;;;;;;;-1.33;71.81;99617.09;2150722;82;27592;-65
2021/01/28 03:08:22;;;;;;;63.73;31.95;;;;;;;-1.31;71.81;99617.95;2182202;81;28827;-66
2021/01/28 03:11:27;;;;;;;65.28;30.62;;;;;;;-1.29;71.76;99611.34;2162976;81;31260;-64
2021/01/28 03:14:29;;;;;;;62.40;31.87;;;;;;;-1.28;71.72;99615.28;2154145;79;32904;-69
2021/01/28 03:17:31;;;;;;;61.20;30.30;;;;;;;-1.27;71.63;99619.66;2187734;81;29184;-65
2021/01/28 03:20:34;;;;;;;62.25;31.85;;;;;;;-1.25;71.59;99617.88;2177180;81;27863;-64
2021/01/28 03:23:35;;;;;;;55.35;28.98;;;;;;;-1.24;71.58;99608.22;2218592;78;30079;-69
2021/01/28 03:26:38;;;;;;;60.15;30.75;;;;;;;-1.24;71.71;99606.45;2222341;78;32170;-67
2021/01/28 03:29:40;;;;;;;58.13;30.30;;;;;;;-1.17;71.79;99609.90;2199824;80;32993;-68
2021/01/28 03:32:42;;;;;;;63.42;31.07;;;;;;;-1.14;71.85;99603.27;2194044;78;29163;-65
2021/01/28 03:35:45;;;;;;;68.62;31.70;;;;;;;-1.07;71.97;99607.56;2198072;80;27658;-64
2021/01/28 03:38:47;;;;;;;62.05;32.13;;;;;;;-1.00;72.08;99606.18;2215242;80;29010;-65
2021/01/28 03:41:49;;;;;;;65.85;31.90;;;;;;;-0.92;72.12;99599.04;2201340;78;32138;-67
2021/01/28 03:44:52;;;;;;;59.18;30.88;;;;;;;-0.86;72.16;99598.08;2209702;79;33200;-70
2021/01/28 03:47:59;;;;;;;65.70;31.42;;;;;;;-0.77;72.22;99603.22;2176198;81;30137;-70
2021/01/28 03:51:01;;;;;;;55.90;31.95;;;;;;;-0.70;72.18;99600.05;2182580;80;27622;-73
2021/01/28 03:54:03;;;;;;;66.62;31.90;;;;;;;-0.64;72.28;99583.73;2220033;80;28814;-68
2021/01/28 03:57:07;;;;;;;59.63;33.08;;;;;;;-0.57;72.30;99575.72;2225779;79;32175;-71
2021/01/28 04:00:11;;;;;;;60.20;29.42;;;;;;;-0.51;72.30;99563.37;2150986;81;33259;-73
2021/01/28 04:03:13;;;;;;;52.65;29.20;;;;;;;-0.47;72.32;99546.61;2190483;81;30127;-69
2021/01/28 04:06:15;;;;;;;51.02;27.15;;;;;;;-0.39;72.28;99540.36;2188811;81;27738;-71
2021/01/28 04:09:17;;;;;;;51.53;27.50;;;;;;;-0.36;72.25;99533.28;2176243;81;28810;-71
2021/01/28 04:12:19;;;;;;;49.60;27.02;;;;;;;-0.29;72.27;99527.92;2195098;81;32129;-71
2021/01/28 04:15:22;;;;;;;41.75;25.40;;;;;;;-0.27;72.15;99519.09;2183073;81;33111;-72
2021/01/28 04:18:23;;;;;;;48.02;25.97;;;;;;;-0.21;72.22;99508.47;2201905;79;29387;-70
2021/01/28 04:21:25;;;;;;;46.88;26.07;;;;;;;-0.17;72.19;99509.27;2158455;79;27809;-69
2021/01/28 04:24:27;;;;;;;45.58;24.25;;;;;;;-0.12;72.18;99511.38;2163837;81;29732;-69
2021/01/28 04:27:29;;;;;;;43.95;25.23;;;;;;;-0.08;72.26;99502.50;2189376;79;31654;-71
2021/01/28 04:30:33;;;;;;;43.95;23.92;;;;;;;-0.01;72.27;99496.23;2187114;80;33000;-74
2021/01/28 04:33:35;;;;;;;43.33;24.35;;;;;;;0.01;72.09;99495.33;2194592;79;29201;-72
2021/01/28 04:36:37;;;;;;;42.40;23.85;;;;;;;0.08;72.27;99490.38;2180714;81;27852;-72
2021/01/28 04:39:41;;;;;;;46.02;25.77;;;;;;;0.12;72.20;99482.81;2211475;79;28902;-68
2021/01/28 04:42:47;;;;;;;42.88;24.07;;;;;;;0.14;71.97;99484.54;2178544;80;32297;-70
2021/01/28 04:45:56;;;;;;;45.15;24.57;;;;;;;0.16;71.94;99487.12;2205323;80;33163;-70
2021/01/28 04:48:59;;;;;;;45.52;25.05;;;;;;;0.20;71.94;99488.81;2194865;81;29169;-71
2021/01/28 04:52:04;;;;;;;42.17;24.52;;;;;;;0.23;71.99;99491.81;2194860;81;27641;-70
2021/01/28 04:55:11;;;;;;;41.33;22.55;;;;;;;0.27;71.90;99482.97;2181305;80;29858;-72
2021/01/28 04:58:13;;;;;;;39.48;22.25;;;;;;;0.27;71.73;99477.70;2201746;80;32298;-72
2021/01/28 05:01:15;;;;;;;42.15;22.30;;;;;;;0.28;71.83;99477.65;2223795;79;33131;-72
2021/01/28 05:04:19;;;;;;;38.30;21.73;;;;;;;0.32;71.76;99473.64;2180239;79;29669;-71
2021/01/28 05:07:28;;;;;;;40.70;21.80;;;;;;;0.33;71.82;99460.45;2195962;81;27706;-71
2021/01/28 05:10:35;;;;;;;37.33;21.85;;;;;;;0.39;71.95;99455.50;2193574;81;28818;-71
2021/01/28 05:13:38;;;;;;;38.02;21.17;;;;;;;0.44;71.87;99442.64;2195034;81;31589;-71
2021/01/28 05:16:44;;;;;;;36.42;20.80;;;;;;;0.48;71.82;99439.47;2195553;81;33204;-70
2021/01/28 05:19:48;;;;;;;35.50;20.35;;;;;;;0.51;71.69;99433.25;2195888;81;29163;-71
2021/01/28 05:23:11;;;;;;;35.75;20.72;;;;;;;0.52;71.66;99430.61;2177603;81;27623;-69
2021/01/28 05:26:35;;;;;;;35.05;20.77;;;;;;;0.56;71.79;99433.59;2056499;86;29783;-71
2021/01/28 05:29:48;;;;;;;37.77;20.83;;;;;;;0.65;71.77;99427.25;2248636;78;27711;-72
2021/01/28 05:32:50;;;;;;;36.28;18.77;;;;;;;0.64;71.68;99428.58;2228797;79;27614;-71
2021/01/28 05:36:20;;;;;;;34.20;20.45;;;;;;;0.66;71.60;99433.38;2228893;79;28856;-71
2021/01/28 05:39:39;;;;;;;32.53;19.40;;;;;;;0.68;71.71;99428.47;2227473;79;31206;-70
2021/01/28 05:42:42;;;;;;;34.75;19.35;;;;;;;0.73;71.55;99409.93;2178998;81;33091;-70
2021/01/28 05:45:44;;;;;;;34.08;19.92;;;;;;;0.75;71.47;99409.41;2179545;81;28595;-70
2021/01/28 05:49:04;;;;;;;36.35;20.90;;;;;;;0.77;71.53;99405.45;2179673;81;27723;-70
2021/01/28 05:52:28;;;;;;;39.67;20.75;;;;;;;0.77;71.47;99401.02;2183389;80;30119;-70
2021/01/28 05:55:30;;;;;;;38.02;20.62;;;;;;;0.80;71.55;99404.91;2189993;81;30529;-70
2021/01/28 05:58:50;;;;;;;33.67;21.02;;;;;;;0.83;71.56;99407.48;2212059;80;33091;-70
2021/01/28 06:02:24;;;;;;;34.18;21.10;;;;;;;0.88;71.56;99412.63;2195512;80;29067;-71
2021/01/28 06:06:08;;;;;;;39.70;21.55;;;;;;;0.92;71.61;99409.02;2150144;82;27673;-71
2021/01/28 06:09:50;;;;;;;38.48;22.07;;;;;;;0.95;71.57;99392.25;2159946;81;29813;-70
2021/01/28 06:13:28;;;;;;;41.77;22.60;;;;;;;0.98;71.46;99386.47;2178445;81;31443;-70
2021/01/28 06:17:08;;;;;;;39.13;22.50;;;;;;;1.05;71.46;99382.75;2217159;77;27739;-71
2021/01/28 06:20:27;;;;;;;41.65;22.65;;;;;;;1.02;71.49;99387.25;2165189;82;27870;-71
2021/01/28 06:23:53;;;;;;;45.92;24.32;;;;;;;1.04;71.46;99386.30;2165663;82;28834;-71
2021/01/28 06:27:01;;;;;;;;;;;;;;;1.08;71.52;99381.80;2168338;81;31242;-70
2021/01/28 06:30:30;;;;;;;51.15;27.17;;;;;;;1.13;71.60;99383.02;2165646;81;33118;-71
2021/01/28 06:34:04;;;;;;;53.42;25.57;;;;;;;1.17;71.73;99388.17;2165027;82;28534;-70
2021/01/28 06:37:14;;;;;;;34.80;21.45;;;;;;;1.25;71.61;99371.26;2136417;82;27629;-71
2021/01/28 06:40:25;;;;;;;35.00;21.90;;;;;;;1.32;71.68;99364.92;2141521;82;29724;-71
2021/01/28 06:43:44;;;;;;;37.48;21.57;;;;;;;1.39;71.61;99357.70;2178539;80;32121;-71
2021/01/28 06:47:17;;;;;;;37.20;21.60;;;;;;;1.44;71.57;99357.98;2212708;80;33115;-71
2021/01/28 06:50:36;;;;;;;41.13;23.87;;;;;;;1.50;71.57;99359.59;2178741;81;28850;-71
2021/01/28 06:53:46;;;;;;;44.05;25.20;;;;;;;1.53;71.54;99358.19;2117050;84;27762;-71
2021/01/28 06:57:21;;;;;;;43.97;24.90;;;;;;;1.60;71.48;99343.92;2310722;76;27710;-71
2021/01/28 07:00:55;;;;;;;32.90;19.05;;;;;;;1.59;71.50;99341.30;2264949;78;31374;-69
2021/01/28 07:04:16;;;;;;;43.08;23.92;;;;;;;1.61;71.46;99336.41;2258796;77;29765;-71
2021/01/28 07:07:25;;;;;;;36.25;22.27;;;;;;;1.63;71.44;99329.32;2264631;77;31199;-71
2021/01/28 07:10:40;;;;;;;39.35;23.45;;;;;;;1.65;71.50;99330.15;2300949;77;33417;-71
2021/01/28 07:13:43;;;;;;;43.40;23.25;;;;;;;1.68;71.58;99338.42;2265020;75;29489;-69
2021/01/28 07:17:02;;;;;;;43.50;25.23;;;;;;;1.69;71.64;99326.95;2252882;77;27717;-70
2021/01/28 07:20:09;;;;;;;39.00;23.57;;;;;;;1.73;71.67;99325.96;2274648;77;28832;-70
2021/01/28 07:23:32;;;;;;;38.25;20.97;;;;;;;1.74;71.76;99322.38;2305648;77;32022;-70
2021/01/28 07:26:56;;;;;;;44.00;23.40;;;;;;;1.78;71.87;99325.82;2306404;77;34049;-70
2021/01/28 07:29:58;;;;;;;45.48;24.00;;;;;;;1.80;71.84;99324.00;2306504;77;29720;-70
2021/01/28 07:33:00;;;;;;;45.90;25.68;;;;;;;1.88;72.05;99325.95;2306722;77;28278;-71
2021/01/28 07:36:25;;;;;;;50.83;26.50;;;;;;;1.96;72.10;99320.44;2306505;77;28819;-70
2021/01/28 07:39:35;;;;;;;56.80;29.35;;;;;;;2.02;72.10;99318.94;2269338;77;31116;-70
2021/01/28 07:42:39;;;;;;;34.95;22.17;;;;;;;2.06;72.06;99304.73;2264403;78;33107;-70
2021/01/28 07:45:41;;;;;;;37.93;22.07;;;;;;;2.13;72.11;99293.52;2265027;77;28848;-70
2021/01/28 07:48:51;;;;;;;38.48;22.75;;;;;;;2.15;72.07;99289.49;2264625;78;27655;-70
2021/01/28 07:52:04;;;;;;;42.05;23.83;;;;;;;2.19;72.13;99293.30;2253249;77;29820;-69
2021/01/28 07:55:37;;;;;;;48.45;24.30;;;;;;;2.28;72.15;99285.54;2257046;77;32102;-69
2021/01/28 07:58:41;;;;;;;40.43;22.10;;;;;;;2.34;72.13;99290.64;2306207;77;34009;-69
2021/01/28 08:01:47;;;;;;;57.00;25.95;;;;;;;2.39;72.03;99286.52;2305545;77;29843;-70
2021/01/28 08:05:10;;;;;;;49.10;25.27;;;;;;;2.39;71.95;99276.83;2306597;77;27700;-70
2021/01/28 08:08:14;;;;;;;35.80;19.57;;;;;;;2.41;71.88;99263.08;2305664;77;28803;-69
2021/01/28 08:11:20;;;;;;;49.10;22.73;;;;;;;2.43;71.93;99265.69;2298869;77;31156;-69
2021/01/28 08:14:25;;;;;;;40.48;20.97;;;;;;;2.46;71.89;99266.03;2286121;77;33099;-70
2021/01/28 08:17:31;;;;;;;41.68;23.38;;;;;;;2.50;71.85;99257.94;2305699;77;28839;-69
2021/01/28 08:20:33;;;;;;;36.58;23.47;;;;;;;2.53;71.85;99249.06;2301496;77;27795;-69
2021/01/28 08:23:38;;;;;;;49.73;27.90;;;;;;;2.57;71.89;99254.19;2305724;77;29349;-69
2021/01/28 08:26:42;;;;;;;58.17;34.75;;;;;;;2.64;71.84;99265.89;2306303;77;33124;-68
2021/01/28 08:29:44;;;;;;;46.83;28.38;;;;;;;2.66;71.79;99250.38;2305997;77;33098;-68
2021/01/28 08:32:48;;;;;;;39.15;23.30;;;;;;;2.68;71.78;99253.83;2307464;77;28851;-68
2021/01/28 08:35:54;;;;;;;32.63;21.35;;;;;;;2.68;71.68;99251.63;2275796;77;27750;-66
2021/01/28 08:39:13;;;;;;;32.00;19.77;;;;;;;2.68;71.73;99245.02;2286813;77;28828;-64
2021/01/28 08:42:19;;;;;;;31.85;20.62;;;;;;;2.70;71.61;99246.72;2263827;77;31132;-66
2021/01/28 08:45:26;;;;;;;34.80;20.68;;;;;;;2.72;71.79;99244.00;2279892;77;32319;-65
2021/01/28 08:48:28;;;;;;;48.35;29.67;;;;;;;2.73;71.71;99233.36;2272581;77;28945;-64
2021/01/28 08:51:30;;;;;;;44.08;26.00;;;;;;;2.79;71.75;99232.75;2299057;77;27751;-72
2021/01/28 08:54:42;;;;;;;31.80;17.85;;;;;;;2.81;71.62;99220.34;2305535;77;29334;-64
2021/01/28 08:57:44;;;;;;;38.13;24.25;;;;;;;2.80;71.39;99215.97;2265456;78;31143;-63
2021/01/28 09:00:53;;;;;;;58.20;40.12;;;;;;;2.79;71.60;99216.87;2261265;78;34022;-64
2021/01/28 09:04:24;;;;;;;63.40;41.45;;;;;;;2.84;71.65;99213.63;2237984;78;29796;-63
2021/01/28 09:08:01;;;;;;;57.23;36.42;;;;;;;2.90;71.74;99214.70;2268843;77;27711;-62
2021/01/28 09:11:22;;;;;;;47.43;29.72;;;;;;;2.96;71.74;99203.92;2268153;77;28813;-63
2021/01/28 09:14:35;;;;;;;65.55;33.92;;;;;;;3.07;71.79;99206.18;2233412;78;32161;-67
2021/01/28 09:17:39;;;;;;;67.65;37.55;;;;;;;3.14;71.68;99189.17;2267151;78;33122;-63
2021/01/28 09:20:41;;;;;;;65.85;37.35;;;;;;;3.24;71.58;99196.75;2240854;78;28859;-62
2021/01/28 09:24:21;;;;;;;62.58;34.48;;;;;;;3.31;71.74;99188.52;2237566;77;27620;-63
2021/01/28 09:30:59;;;;;;;44.75;24.30;;;;;;;3.43;71.36;99169.99;2171719;81;31206;-64
2021/01/28 09:34:14;;;;;;;52.80;27.48;;;;;;;3.48;71.28;99168.00;2094629;84;33396;-63
2021/01/28 09:37:20;;;;;;;42.10;21.77;;;;;;;3.54;71.34;99173.55;2136093;83;34589;-64
2021/01/28 09:40:33;;;;;;;40.80;19.67;;;;;;;3.55;71.01;99160.72;2132714;83;27719;-68
2021/01/28 09:43:36;;;;;;;42.83;20.17;;;;;;;3.58;70.77;99157.92;2135756;81;30110;-69
2021/01/28 09:46:38;;;;;;;40.08;20.08;;;;;;;3.60;70.84;99156.08;2130530;83;31173;-68
2021/01/28 09:49:40;;;;;;;42.95;23.07;;;;;;;3.65;70.94;99149.27;2132243;83;33118;-67
2021/01/28 09:52:46;;;;;;;39.10;23.60;;;;;;;3.74;70.83;99148.91;2134845;83;29075;-63
2021/01/28 09:55:51;;;;;;;42.88;26.85;;;;;;;3.83;70.91;99149.01;2136867;83;27861;-65
2021/01/28 09:58:53;;;;;;;74.12;48.70;;;;;;;3.92;70.75;99141.14;2131278;82;28913;-65
2021/01/28 10:01:56;;;;;;;87.60;47.27;;;;;;;4.00;70.61;99145.65;2118093;84;31157;-62
2021/01/28 10:04:59;;;;;;;90.38;45.83;;;;;;;4.06;70.37;99144.53;2129368;82;33996;-64
2021/01/28 10:08:06;;;;;;;94.80;46.48;;;;;;;4.10;70.37;99146.13;2159062;82;28868;-62
2021/01/28 10:11:10;;;;;;;93.97;44.05;;;;;;;4.15;70.36;99143.28;2149490;82;27681;-71
2021/01/28 10:14:12;;;;;;;71.87;40.40;;;;;;;4.21;70.19;99139.94;2120429;82;28814;-65
2021/01/28 10:17:15;;;;;;;83.42;42.70;;;;;;;4.28;70.32;99129.94;2121595;83;32622;-63
2021/01/28 10:20:18;;;;;;;94.28;47.03;;;;;;;4.33;70.18;99127.08;2127615;82;34329;-63
2021/01/28 10:23:20;;;;;;;108.92;44.00;;;;;;;4.37;70.19;99128.20;2118404;84;29792;-68
2021/01/28 10:26:25;;;;;;;53.15;25.90;;;;;;;4.40;69.79;99128.08;2118811;82;27797;-63
2021/01/28 10:29:27;;;;;;;;;;;;;;;4.40;69.65;99121.45;2149153;80;28842;-64
2021/01/28 10:32:29;;;;;;;31.62;19.32;;;;;;;4.40;69.51;99112.16;2146617;82;31195;-65
2021/01/28 10:35:34;;;;;;;38.13;19.02;;;;;;;4.39;69.43;99109.11;2184499;81;33103;-64
2021/01/28 10:38:36;;;;;;;30.88;19.15;;;;;;;4.42;69.62;99109.44;2176132;81;29893;-70
2021/01/28 10:41:38;;;;;;;33.83;19.30;;;;;;;4.44;69.42;99098.30;2182645;80;27683;-64
2021/01/28 10:44:40;;;;;;;29.18;19.35;;;;;;;4.49;69.36;99100.30;2182778;81;29727;-70
2021/01/28 10:47:43;;;;;;;98.30;59.83;;;;;;;4.55;69.37;99085.89;2183485;81;31209;-66
2021/01/28 10:50:46;;;;;;;28.80;18.92;;;;;;;4.59;68.59;99091.47;2183552;81;34029;-64
2021/01/28 10:53:48;;;;;;;21.10;15.03;;;;;;;4.65;69.09;99079.23;2183279;81;28676;-62
2021/01/28 10:56:52;;;;;;;27.45;18.45;;;;;;;4.74;68.96;99071.81;2183103;81;27647;-64
2021/01/28 10:59:54;;;;;;;25.72;15.75;;;;;;;4.82;68.75;99066.55;2183587;81;28811;-64
2021/01/28 11:02:59;;;;;;;31.70;20.48;;;;;;;4.91;68.84;99064.38;2181248;80;31297;-64
2021/01/28 11:06:01;;;;;;;39.73;24.92;;;;;;;5.00;68.59;99054.69;2148996;81;33140;-64
2021/01/28 11:09:03;;;;;;;43.60;27.95;;;;;;;5.06;68.14;99048.22;2173928;80;29875;-64
2021/01/28 11:12:06;;;;;;;30.43;21.07;;;;;;;5.11;68.32;99048.39;2166137;81;27732;-67
2021/01/28 11:15:11;;;;;;;34.30;21.60;;;;;;;5.19;68.46;99048.02;2149314;80;28449;-64
2021/01/28 11:18:14;;;;;;;29.95;18.07;;;;;;;5.24;67.80;99035.40;2144444;83;31993;-70
2021/01/28 11:21:17;;;;;;;32.40;21.52;;;;;;;5.27;67.90;99029.95;2144946;83;34052;-64
2021/01/28 11:24:22;;;;;;;23.90;15.50;;;;;;;5.30;67.70;99016.98;2145120;83;28856;-66
2021/01/28 11:27:25;;;;;;;;;;;;;;;5.33;67.46;99019.48;2147665;83;27669;-65
2021/01/28 11:30:31;;;;;;;25.77;16.05;;;;;;;5.33;67.57;99017.68;2136322;81;28943;-64
2021/01/28 11:33:34;;;;;;;22.93;15.00;;;;;;;5.34;67.67;99027.85;2165468;82;31131;-70
2021/01/28 11:36:36;;;;;;;23.60;14.73;;;;;;;5.34;67.46;99026.52;2164744;81;34103;-66
2021/01/28 11:39:39;;;;;;;29.25;15.98;;;;;;;5.32;67.48;99027.06;2164597;82;28867;-65
2021/01/28 11:42:41;;;;;;;28.45;17.85;;;;;;;5.30;67.20;99026.27;2165731;81;27734;-66
2021/01/28 11:45:43;;;;;;;34.08;21.07;;;;;;;5.29;67.16;99016.58;2165788;81;29148;-65
2021/01/28 11:48:45;;;;;;;37.63;20.90;;;;;;;5.27;67.20;99003.39;2165629;82;31131;-64
2021/01/28 11:51:47;;;;;;;26.97;16.32;;;;;;;5.29;67.41;98998.88;2164969;82;34559;-70
2021/01/28 11:54:50;;;;;;;27.65;15.88;;;;;;;5.27;67.27;99002.52;2164992;82;28861;-69
2021/01/28 11:57:52;;;;;;;24.18;14.75;;;;;;;5.27;67.35;98990.13;2147979;82;27707;-66
2021/01/28 12:00:55;;;;;;;30.17;16.67;;;;;;;5.26;67.37;98984.86;2168280;81;29709;-64
2021/01/28 12:03:57;;;;;;;29.98;16.97;;;;;;;5.23;66.68;98986.34;2165821;82;32095;-64
2021/01/28 12:07:00;;;;;;;22.30;12.03;;;;;;;5.19;67.14;98991.42;2165834;82;32272;-67
2021/01/28 12:10:05;;;;;;;26.33;16.57;;;;;;;5.19;67.12;98978.16;2165539;82;29359;-65
2021/01/28 12:13:07;;;;;;;;;;;;;;;5.19;66.50;98970.19;2168532;81;27656;-71
2021/01/28 12:16:09;;;;;;;20.92;13.93;;;;;;;5.14;66.71;98967.28;2176771;81;28932;-68
2021/01/28 12:19:11;;;;;;;24.18;16.65;;;;;;;5.12;66.68;98961.67;2187682;81;30345;-66
2021/01/28 12:22:14;;;;;;;28.40;15.58;;;;;;;5.09;67.02;98966.64;2187663;81;33882;-65
2021/01/28 12:25:16;;;;;;;26.35;16.95;;;;;;;5.11;67.09;98963.92;2187841;81;30038;-65
2021/01/28 12:28:18;;;;;;;22.93;16.10;;;;;;;5.09;67.13;98962.66;2186100;80;27640;-64
2021/01/28 12:31:20;;;;;;;24.47;15.35;;;;;;;5.09;67.03;98955.17;2165797;81;28886;-67
2021/01/28 12:34:22;;;;;;;22.45;14.03;;;;;;;5.05;67.03;98951.78;2165721;82;31191;-64
2021/01/28 12:37:25;;;;;;;35.13;20.57;;;;;;;5.02;67.08;98931.58;2165672;82;33169;-64
2021/01/28 12:40:27;;;;;;;36.08;22.95;;;;;;;5.02;67.13;98917.46;2140699;82;29109;-67
2021/01/28 12:43:30;;;;;;;35.78;19.87;;;;;;;4.99;67.28;98912.30;2170797;81;27744;-68
2021/01/28 12:46:32;;;;;;;33.00;18.98;;;;;;;4.97;67.45;98904.39;2173439;81;28879;-65
2021/01/28 12:49:35;;;;;;;42.73;22.52;;;;;;;4.97;67.56;98903.55;2165777;81;31149;-68
2021/01/28 12:52:38;;;;;;;69.17;37.75;;;;;;;4.98;67.69;98907.44;2165716;81;33098;-68
2021/01/28 12:55:41;;;;;;;54.88;29.50;;;;;;;4.96;67.78;98911.99;2165763;82;29992;-67
2021/01/28 12:58:43;;;;;;;61.90;36.25;;;;;;;4.95;67.89;98907.62;2165950;82;27691;-68
2021/01/28 13:01:45;;;;;;;78.83;45.73;;;;;;;4.92;68.04;98905.11;2163783;82;28836;-64
2021/01/28 13:04:50;;;;;;;43.48;21.80;;;;;;;4.91;68.15;98901.19;2162353;82;31351;-67
2021/01/28 13:07:52;;;;;;;49.08;25.90;;;;;;;4.90;68.26;98904.32;2158633;81;34135;-65
2021/01/28 13:10:54;;;;;;;42.40;24.30;;;;;;;4.91;68.21;98903.38;2165109;82;29664;-65
2021/01/28 13:13:57;;;;;;;56.23;28.30;;;;;;;4.93;68.09;98900.20;2165224;82;28349;-71
2021/01/28 13:16:59;;;;;;;51.23;27.60;;;;;;;4.96;68.18;98887.23;2165778;82;28887;-70
2021/01/28 13:20:05;;;;;;;51.88;27.60;;;;;;;5.01;68.37;98887.87;2164849;81;31189;-70
2021/01/28 13:23:13;;;;;;;44.13;25.90;;;;;;;5.08;68.39;98881.78;2164845;82;33103;-64
2021/01/28 13:26:14;;;;;;;41.45;23.83;;;;;;;5.11;68.30;98873.67;2165899;82;30020;-64
2021/01/28 13:29:21;;;;;;;47.27;27.10;;;;;;;5.10;68.17;98863.99;2150296;80;27707;-66
2021/01/28 13:32:23;;;;;;;55.63;28.00;;;;;;;5.11;68.46;98861.73;2184793;80;29704;-66
2021/01/28 13:35:27;;;;;;;51.08;27.58;;;;;;;5.14;68.54;98857.56;2192546;80;31122;-66
2021/01/28 13:38:29;;;;;;;55.45;30.10;;;;;;;5.16;68.69;98853.92;2193901;80;33572;-65
2021/01/28 13:41:31;;;;;;;57.48;31.30;;;;;;;5.19;68.67;98854.70;2184793;80;30107;-66
2021/01/28 13:44:33;;;;;;;54.40;33.25;;;;;;;5.16;68.67;98856.58;2209436;80;27637;-67
2021/01/28 13:47:36;;;;;;;44.48;27.35;;;;;;;5.16;68.81;98860.55;2171180;80;29757;-69
2021/01/28 13:50:40;;;;;;;51.90;32.70;;;;;;;5.13;68.81;98847.92;2119123;82;31210;-68
2021/01/28 13:53:43;;;;;;;53.23;28.75;;;;;;;5.11;68.82;98851.11;2083437;85;33087;-72
2021/01/28 13:56:54;;;;;;;42.43;26.65;;;;;;;5.07;68.75;98849.55;2083333;85;29232;-68
2021/01/28 13:59:51;;;;;;;44.03;25.12;;;;;;;5.01;68.84;98848.06;2115182;81;27668;-70
2021/01/28 14:02:54;;;;;;;50.43;27.73;;;;;;;4.97;68.97;98841.18;2093962;83;28830;-71
2021/01/28 14:05:56;;;;;;;46.75;26.73;;;;;;;4.96;69.14;98839.02;2114418;82;31144;-70
2021/01/28 14:08:58;;;;;;;46.33;27.02;;;;;;;4.97;69.24;98834.06;2165283;81;33684;-66
2021/01/28 14:12:03;;;;;;;45.12;25.90;;;;;;;5.00;69.37;98825.95;2177753;81;29166;-68
2021/01/28 14:15:13;;;;;;;39.25;24.12;;;;;;;5.04;69.36;98827.13;2156740;81;27749;-67
2021/01/28 14:18:15;;;;;;;38.02;24.43;;;;;;;5.04;69.30;98822.70;2142751;81;29703;-68
2021/01/28 14:21:17;;;;;;;41.37;24.43;;;;;;;5.05;69.37;98826.20;2136577;83;31223;-66
2021/01/28 14:24:19;;;;;;;40.25;23.22;;;;;;;5.01;69.33;98825.02;2134183;83;32298;-66
2021/01/28 14:27:22;;;;;;;29.40;17.45;;;;;;;4.99;69.41;98832.20;2117833;81;29324;-69
2021/01/28 14:30:24;;;;;;;34.38;20.15;;;;;;;4.97;69.41;98822.12;2176837;81;27844;-65